createdAt,value
2018-12-15T00:01:30.775Z,16.57
2018-12-15T00:04:01.585Z,16.27
2018-12-15T00:06:32.575Z,15.20
2018-12-15T00:09:04.456Z,14.67
2018-12-15T00:11:35.297Z,13.27
2018-12-15T00:14:06.368Z,15.47
2018-12-15T00:16:37.211Z,16.27
2018-12-15T00:19:08.795Z,19.40
2018-12-15T00:21:39.762Z,13.23
2018-12-15T00:24:11.047Z,13.40
2018-12-15T00:26:42.202Z,12.60
2018-12-15T00:29:13.069Z,15.53
2018-12-15T00:31:43.956Z,13.37
2018-12-15T00:34:14.848Z,14.23
2018-12-15T00:36:45.812Z,15.00
2018-12-15T00:39:16.915Z,14.03
2018-12-15T00:41:47.804Z,13.63
2018-12-15T00:44:18.648Z,13.40
2018-12-15T00:46:49.535Z,13.97
2018-12-15T00:49:20.391Z,13.10
2018-12-15T00:51:51.316Z,14.17
2018-12-15T00:54:22.275Z,12.83
2018-12-15T00:56:53.088Z,12.87
2018-12-15T00:59:24.019Z,14.70
2018-12-15T01:01:54.738Z,13.30
2018-12-15T01:04:25.731Z,12.70
2018-12-15T01:06:56.491Z,13.57
2018-12-15T01:09:27.338Z,12.07
2018-12-15T01:11:58.393Z,12.07
2018-12-15T01:14:29.084Z,11.27
2018-12-15T01:17:00.014Z,12.07
2018-12-15T01:19:30.765Z,10.80
2018-12-15T01:22:01.958Z,14.93
2018-12-15T01:24:32.768Z,13.57
2018-12-15T01:27:03.851Z,12.10
2018-12-15T01:29:34.767Z,13.33
2018-12-15T01:32:05.653Z,12.43
2018-12-15T01:34:36.497Z,12.47
2018-12-15T01:37:07.396Z,12.30
2018-12-15T01:39:38.317Z,13.30
2018-12-15T01:42:09.063Z,13.97
2018-12-15T01:44:39.955Z,12.53
2018-12-15T01:47:10.800Z,12.20
2018-12-15T01:49:41.594Z,10.47
2018-12-15T01:52:12.393Z,14.93
2018-12-15T01:54:43.429Z,13.80
2018-12-15T01:57:14.403Z,11.90
2018-12-15T01:59:45.514Z,11.27
2018-12-15T02:02:16.368Z,15.53
2018-12-15T02:04:47.634Z,12.90
2018-12-15T02:07:18.439Z,11.60
2018-12-15T02:09:49.281Z,12.10
2018-12-15T02:12:20.115Z,12.67
2018-12-15T02:14:50.862Z,17.00
2018-12-15T02:17:21.762Z,13.27
2018-12-15T02:19:53.249Z,11.30
2018-12-15T02:22:24.213Z,10.40
2018-12-15T02:24:55.456Z,11.50
2018-12-15T02:27:26.330Z,10.97
2018-12-15T02:29:57.176Z,10.90
2018-12-15T02:32:28.232Z,11.47
2018-12-15T02:34:59.079Z,10.67
2018-12-15T02:37:34.062Z,11.20
2018-12-15T02:40:06.431Z,10.83
2018-12-15T02:42:37.206Z,10.87
2018-12-15T02:45:08.212Z,11.43
2018-12-15T02:47:41.682Z,10.83
2018-12-15T02:50:12.243Z,11.40
2018-12-15T02:52:43.154Z,11.37
2018-12-15T02:55:14.058Z,10.83
2018-12-15T02:57:45.122Z,10.93
2018-12-15T03:00:15.935Z,11.80
2018-12-15T03:02:46.927Z,12.50
2018-12-15T03:05:18.064Z,10.70
2018-12-15T03:07:49.434Z,12.23
2018-12-15T03:10:20.301Z,10.03
2018-12-15T03:12:51.279Z,10.43
2018-12-15T03:15:22.132Z,10.37
2018-12-15T03:17:52.895Z,9.83
2018-12-15T03:20:24.133Z,11.13
2018-12-15T03:22:55.067Z,11.23
2018-12-15T03:25:25.893Z,11.00
2018-12-15T03:27:56.799Z,11.73
2018-12-15T03:30:27.737Z,11.53
2018-12-15T03:32:58.783Z,12.50
2018-12-15T03:35:29.493Z,12.37
2018-12-15T03:38:00.372Z,12.03
2018-12-15T03:40:31.375Z,11.10
2018-12-15T03:43:02.246Z,10.50
2018-12-15T03:45:33.101Z,10.27
2018-12-15T03:48:03.940Z,9.60
2018-12-15T03:50:34.881Z,8.60
2018-12-15T03:53:05.881Z,8.43
2018-12-15T03:55:36.814Z,13.30
2018-12-15T03:58:07.663Z,40.70
2018-12-15T04:00:38.443Z,35.95
2018-12-15T04:03:09.513Z,22.73
2018-12-15T04:05:40.400Z,16.03
2018-12-15T04:08:11.240Z,22.40
2018-12-15T04:10:42.160Z,18.00
2018-12-15T04:13:13.100Z,15.30
2018-12-15T04:15:44.270Z,14.13
2018-12-15T04:18:15.185Z,13.53
2018-12-15T04:20:46.121Z,11.60
2018-12-15T04:23:17.104Z,10.53
2018-12-15T04:25:48.079Z,9.57
2018-12-15T04:28:19.113Z,9.37
2018-12-15T04:30:49.963Z,9.40
2018-12-15T04:33:20.896Z,10.30
2018-12-15T04:35:51.752Z,9.37
2018-12-15T04:38:22.634Z,8.97
2018-12-15T04:40:53.542Z,9.37
2018-12-15T04:43:24.484Z,8.83
2018-12-15T04:45:55.451Z,8.90
2018-12-15T04:48:26.729Z,8.40
2018-12-15T04:50:57.550Z,8.37
2018-12-15T04:53:28.469Z,9.03
2018-12-15T04:55:59.897Z,9.63
2018-12-15T04:58:30.820Z,8.77
2018-12-15T05:01:01.764Z,11.03
2018-12-15T05:03:32.559Z,10.63
2018-12-15T05:06:03.503Z,10.70
2018-12-15T05:08:34.526Z,15.40
2018-12-15T05:11:05.455Z,21.97
2018-12-15T05:13:36.343Z,33.17
2018-12-15T05:16:07.102Z,22.40
2018-12-15T05:18:38.112Z,16.00
2018-12-15T05:21:09.216Z,10.53
2018-12-15T05:23:40.193Z,11.83
2018-12-15T05:26:11.058Z,10.17
2018-12-15T05:28:41.893Z,11.07
2018-12-15T05:31:12.762Z,12.40
2018-12-15T05:33:43.618Z,14.50
2018-12-15T05:36:14.495Z,13.50
2018-12-15T05:38:45.324Z,14.60
2018-12-15T05:41:16.450Z,17.80
2018-12-15T05:43:47.257Z,17.13
2018-12-15T05:46:18.121Z,13.20
2018-12-15T05:48:48.974Z,15.13
2018-12-15T05:51:19.902Z,21.00
2018-12-15T05:53:50.673Z,32.73
2018-12-15T05:56:21.552Z,31.77
2018-12-15T05:58:52.364Z,21.23
2018-12-15T06:01:23.180Z,21.87
2018-12-15T06:03:54.069Z,20.43
2018-12-15T06:06:25.005Z,17.67
2018-12-15T06:08:55.736Z,17.57
2018-12-15T06:11:26.852Z,20.13
2018-12-15T06:13:57.720Z,27.10
2018-12-15T06:16:28.896Z,29.50
2018-12-15T06:18:59.835Z,23.00
2018-12-15T06:21:30.661Z,18.13
2018-12-15T06:24:02.521Z,14.53
2018-12-15T06:26:33.427Z,13.43
2018-12-15T06:29:04.668Z,11.77
2018-12-15T06:31:35.825Z,13.13
2018-12-15T06:34:06.767Z,22.57
2018-12-15T06:36:37.600Z,20.97
2018-12-15T06:39:09.005Z,18.97
2018-12-15T06:41:40.125Z,17.57
2018-12-15T06:44:10.831Z,17.70
2018-12-15T06:46:42.404Z,22.67
2018-12-15T06:49:13.241Z,20.43
2018-12-15T06:51:44.262Z,17.00
2018-12-15T06:54:15.243Z,14.50
2018-12-15T06:56:46.247Z,17.20
2018-12-15T06:59:17.119Z,15.57
2018-12-15T07:01:48.020Z,17.57
2018-12-15T07:04:18.988Z,17.60
2018-12-15T07:06:49.771Z,15.33
2018-12-15T07:09:20.807Z,14.17
2018-12-15T07:11:51.807Z,16.53
2018-12-15T07:14:22.834Z,16.90
2018-12-15T07:16:53.815Z,18.83
2018-12-15T07:19:24.738Z,28.17
2018-12-15T07:21:55.651Z,23.43
2018-12-15T07:24:26.773Z,26.23
2018-12-15T07:26:57.832Z,19.63
2018-12-15T07:29:28.903Z,39.10
2018-12-15T07:32:00.002Z,44.13
2018-12-15T07:34:30.873Z,28.90
2018-12-15T07:37:01.839Z,24.00
2018-12-15T07:39:32.922Z,27.10
2018-12-15T07:42:04.021Z,24.97
2018-12-15T07:44:35.108Z,14.63
2018-12-15T07:47:06.239Z,15.67
2018-12-15T07:49:37.179Z,14.97
2018-12-15T07:52:08.225Z,15.87
2018-12-15T07:54:39.282Z,17.10
2018-12-15T07:57:10.442Z,16.37
2018-12-15T07:59:41.716Z,16.97
2018-12-15T08:02:13.546Z,18.50
2018-12-15T08:04:44.455Z,18.90
2018-12-15T08:07:15.435Z,19.53
2018-12-15T08:09:48.207Z,20.07
2018-12-15T08:12:36.995Z,22.73
2018-12-15T08:15:09.537Z,22.33
2018-12-15T08:17:40.710Z,26.83
2018-12-15T08:20:12.471Z,24.40
2018-12-15T08:22:43.499Z,28.30
2018-12-15T08:25:14.592Z,29.73
2018-12-15T08:27:45.691Z,32.43
2018-12-15T08:30:16.818Z,28.50
2018-12-15T08:32:47.728Z,24.30
2018-12-15T08:35:19.571Z,23.53
2018-12-15T08:37:50.464Z,28.97
2018-12-15T08:40:21.858Z,39.47
2018-12-15T08:42:52.778Z,33.60
2018-12-15T08:45:23.786Z,24.53
2018-12-15T08:47:54.870Z,24.57
2018-12-15T08:50:26.230Z,23.63
2018-12-15T08:52:57.247Z,70.70
2018-12-15T08:55:28.222Z,33.10
2018-12-15T08:57:59.077Z,23.40
2018-12-15T09:00:30.196Z,27.00
2018-12-15T09:03:01.459Z,24.73
2018-12-15T09:05:32.185Z,23.90
2018-12-15T09:08:03.243Z,38.53
2018-12-15T09:10:34.384Z,24.33
2018-12-15T09:13:05.461Z,26.27
2018-12-15T09:15:36.232Z,30.77
2018-12-15T09:18:15.675Z,37.97
2018-12-15T09:20:47.104Z,31.97
2018-12-15T09:23:18.370Z,78.23
2018-12-15T09:25:49.597Z,44.37
2018-12-15T09:28:20.642Z,37.23
2018-12-15T09:30:51.683Z,36.57
2018-12-15T09:33:23.176Z,53.13
2018-12-15T09:36:31.806Z,32.83
2018-12-15T09:39:24.497Z,37.20
2018-12-15T09:41:57.794Z,35.70
2018-12-15T09:44:46.937Z,34.50
2018-12-15T09:47:42.054Z,26.80
2018-12-15T09:50:14.276Z,32.57
2018-12-15T09:52:45.176Z,26.20
2018-12-15T09:55:16.382Z,28.00
2018-12-15T09:57:47.469Z,35.13
2018-12-15T10:00:18.754Z,26.37
2018-12-15T10:02:49.748Z,27.63
2018-12-15T10:05:20.833Z,25.83
2018-12-15T10:07:51.908Z,25.07
2018-12-15T10:10:22.966Z,25.00
2018-12-15T10:12:54.031Z,23.83
2018-12-15T10:15:25.142Z,27.27
2018-12-15T10:17:56.311Z,24.33
2018-12-15T10:20:27.360Z,30.60
2018-12-15T10:22:58.392Z,25.10
2018-12-15T10:25:29.514Z,34.10
2018-12-15T10:28:00.788Z,30.13
2018-12-15T10:30:36.886Z,25.17
2018-12-15T10:33:08.124Z,24.67
2018-12-15T10:35:39.237Z,21.63
2018-12-15T10:38:10.306Z,28.43
2018-12-15T10:40:41.573Z,23.20
2018-12-15T10:43:12.735Z,24.37
2018-12-15T10:45:43.654Z,24.60
2018-12-15T10:48:14.675Z,40.00
2018-12-15T10:50:46.089Z,39.07
2018-12-15T10:53:17.167Z,19.47
2018-12-15T10:55:48.302Z,28.97
2018-12-15T10:58:19.538Z,29.70
2018-12-15T11:00:55.634Z,19.83
2018-12-15T11:03:26.984Z,28.40
2018-12-15T11:05:58.062Z,18.70
2018-12-15T11:08:28.962Z,24.90
2018-12-15T11:11:00.193Z,16.30
2018-12-15T11:13:31.241Z,16.90
2018-12-15T11:16:02.650Z,25.63
2018-12-15T11:18:33.728Z,20.57
2018-12-15T11:21:04.980Z,35.40
2018-12-15T11:23:36.237Z,16.33
2018-12-15T11:26:07.611Z,11.77
2018-12-15T11:28:39.219Z,13.27
2018-12-15T11:31:10.379Z,11.00
2018-12-15T11:33:41.477Z,11.93
2018-12-15T11:36:12.394Z,18.73
2018-12-15T11:38:43.564Z,15.17
2018-12-15T11:41:14.723Z,14.20
2018-12-15T11:43:46.236Z,18.60
2018-12-15T11:46:17.806Z,13.50
2018-12-15T11:48:48.886Z,20.03
2018-12-15T11:51:20.349Z,13.73
2018-12-15T11:53:51.704Z,24.53
2018-12-15T11:56:22.761Z,40.80
2018-12-15T11:58:54.300Z,22.00
2018-12-15T12:01:25.379Z,20.53
2018-12-15T12:03:56.659Z,29.30
2018-12-15T12:06:27.645Z,25.50
2018-12-15T12:08:58.829Z,23.23
2018-12-15T12:11:30.057Z,45.77
2018-12-15T12:14:01.593Z,27.30
2018-12-15T12:16:32.674Z,23.03
2018-12-15T12:19:03.724Z,16.53
2018-12-15T12:32:01.568Z,18.93
2018-12-15T12:37:42.811Z,16.03
2018-12-15T12:40:53.245Z,15.93
2018-12-15T12:43:38.370Z,15.00
2018-12-15T12:46:35.387Z,18.97
2018-12-15T12:49:18.369Z,18.53
2018-12-15T12:51:54.655Z,15.90
2018-12-15T12:54:27.171Z,14.03
2018-12-15T12:57:00.498Z,14.57
2018-12-15T12:59:35.194Z,14.80
2018-12-15T13:02:08.266Z,15.10
2018-12-15T13:04:42.156Z,14.30
2018-12-15T13:07:14.476Z,14.50
2018-12-15T13:09:47.120Z,14.40
2018-12-15T13:12:19.510Z,14.47
2018-12-15T13:14:51.758Z,14.03
2018-12-15T13:17:24.822Z,13.83
2018-12-15T13:20:03.427Z,15.23
2018-12-15T13:22:32.200Z,15.23
2018-12-15T13:25:04.670Z,15.17
2018-12-15T13:27:38.198Z,13.73
2018-12-15T13:30:10.645Z,14.33
2018-12-15T13:32:43.220Z,14.37
2018-12-15T13:35:15.222Z,14.93
2018-12-15T13:37:48.030Z,15.40
2018-12-15T13:40:20.240Z,14.77
2018-12-15T13:42:52.570Z,15.87
2018-12-15T13:45:24.677Z,15.57
2018-12-15T13:47:56.597Z,25.70
2018-12-15T13:50:29.588Z,18.17
2018-12-15T13:53:01.397Z,15.43
2018-12-15T13:55:35.113Z,17.70
2018-12-15T13:58:07.627Z,16.23
2018-12-15T14:00:41.251Z,48.30
2018-12-15T14:03:14.053Z,28.20
2018-12-15T14:05:46.074Z,24.93
2018-12-15T14:08:18.188Z,36.57
2018-12-15T14:10:50.292Z,23.67
2018-12-15T14:13:22.754Z,19.73
2018-12-15T14:15:56.918Z,35.28
2018-12-15T14:18:28.987Z,36.27
2018-12-15T14:21:00.816Z,27.47
2018-12-15T14:23:33.197Z,24.50
2018-12-15T14:26:05.787Z,29.83
2018-12-15T14:28:38.289Z,21.70
2018-12-15T14:34:11.704Z,26.17
2018-12-15T14:36:44.026Z,21.90
2018-12-15T14:39:16.280Z,20.63
2018-12-15T14:41:48.557Z,18.37
2018-12-15T14:44:20.816Z,16.90
2018-12-15T14:46:53.347Z,16.63
2018-12-15T14:49:25.978Z,21.87
2018-12-15T14:56:52.549Z,21.47
2018-12-15T14:59:24.596Z,21.00
2018-12-15T15:01:57.015Z,21.00
2018-12-15T15:04:29.375Z,24.17
2018-12-15T15:07:01.909Z,21.83
2018-12-15T15:09:34.521Z,26.23
2018-12-15T15:12:07.228Z,21.47
2018-12-15T15:14:39.911Z,36.70
2018-12-15T15:17:12.624Z,34.07
2018-12-15T15:19:45.172Z,32.57
2018-12-15T15:22:17.557Z,39.43
2018-12-15T15:24:50.066Z,49.07
2018-12-15T15:27:22.357Z,38.33
2018-12-15T15:29:54.405Z,43.60
2018-12-15T15:32:26.840Z,32.03
2018-12-15T15:34:59.107Z,37.03
2018-12-15T15:37:31.423Z,34.13
2018-12-15T15:40:04.035Z,41.53
2018-12-15T15:42:36.573Z,34.47
2018-12-15T15:45:09.127Z,39.93
2018-12-15T15:47:41.615Z,41.93
2018-12-15T15:50:15.152Z,33.77
2018-12-15T15:52:47.583Z,30.77
2018-12-15T15:55:20.373Z,26.77
2018-12-15T15:57:53.519Z,25.13
2018-12-15T16:00:26.213Z,26.53
2018-12-15T16:02:59.140Z,26.67
2018-12-15T16:05:31.951Z,29.53
2018-12-15T16:08:04.355Z,29.83
2018-12-15T16:10:37.159Z,43.40
2018-12-15T16:13:09.439Z,41.40
2018-12-15T16:15:41.732Z,42.30
2018-12-15T16:18:14.463Z,31.53
2018-12-15T16:20:47.111Z,33.93
2018-12-15T16:23:19.511Z,30.93
2018-12-15T16:25:51.597Z,29.00
2018-12-15T16:28:23.908Z,31.43
2018-12-15T16:30:56.312Z,34.03
2018-12-15T16:33:28.611Z,36.37
2018-12-15T16:36:00.862Z,31.50
2018-12-15T16:38:33.223Z,29.47
2018-12-15T16:41:05.879Z,35.87
2018-12-15T16:43:38.263Z,34.43
2018-12-15T16:46:10.473Z,47.63
2018-12-15T16:48:42.867Z,46.83
2018-12-15T16:51:17.732Z,60.17
2018-12-15T17:05:08.960Z,32.50
2018-12-15T17:07:41.350Z,32.07
2018-12-15T17:10:15.818Z,28.40
2018-12-15T17:12:48.462Z,25.27
2018-12-15T17:15:20.970Z,24.73
2018-12-15T17:17:54.389Z,23.50
2018-12-15T17:20:26.964Z,22.87
2018-12-15T17:22:58.964Z,23.53
2018-12-15T17:25:31.402Z,27.70
2018-12-15T17:28:03.892Z,24.30
2018-12-15T17:30:36.696Z,25.50
2018-12-15T17:45:06.501Z,21.50
2018-12-15T17:47:39.773Z,19.40
2018-12-15T18:03:21.555Z,21.83
2018-12-15T18:05:54.469Z,21.60
2018-12-15T18:11:22.758Z,20.57
2018-12-15T18:13:56.312Z,24.67
2018-12-15T18:16:29.439Z,30.73
2018-12-15T18:19:02.324Z,33.07
2018-12-15T18:21:35.111Z,31.23
2018-12-15T18:24:08.681Z,26.80
2018-12-15T18:26:40.899Z,25.13
2018-12-15T18:29:15.210Z,22.70
2018-12-15T18:31:48.413Z,25.20
2018-12-15T18:34:22.211Z,26.13
2018-12-15T18:36:54.420Z,19.97
2018-12-15T18:39:28.992Z,19.27
2018-12-15T18:42:01.891Z,20.07
2018-12-15T18:44:35.289Z,19.90
2018-12-15T18:47:08.879Z,19.47
2018-12-15T18:49:43.599Z,25.93
2018-12-15T18:52:16.790Z,28.73
2018-12-15T18:54:51.325Z,22.73
2018-12-15T18:57:25.171Z,23.83
2018-12-15T18:59:59.738Z,25.23
2018-12-15T19:02:31.979Z,28.07
2018-12-15T19:05:04.870Z,25.57
2018-12-15T19:07:37.956Z,28.70
2018-12-15T19:10:11.163Z,25.60
2018-12-15T19:12:43.566Z,27.13
2018-12-15T19:15:16.047Z,26.97
2018-12-15T19:17:48.542Z,25.40
2018-12-15T19:20:20.952Z,24.00
2018-12-15T19:22:53.475Z,25.53
2018-12-15T19:25:26.857Z,26.27
2018-12-15T19:28:00.363Z,26.07
2018-12-15T19:30:32.747Z,23.53
2018-12-15T19:33:09.078Z,24.30
2018-12-15T19:35:41.959Z,23.00
2018-12-15T19:38:14.051Z,21.80
2018-12-15T19:40:52.073Z,22.13
2018-12-15T19:43:33.928Z,24.73
2018-12-15T19:48:45.277Z,23.10
2018-12-15T19:51:17.943Z,28.43
2018-12-15T19:53:50.474Z,61.30
2018-12-15T19:56:23.117Z,37.03
2018-12-15T19:59:15.457Z,31.60
2018-12-15T20:01:47.742Z,27.70
2018-12-15T20:04:20.089Z,24.07
2018-12-15T20:06:52.181Z,26.30
2018-12-15T20:09:26.024Z,25.07
2018-12-15T20:12:10.769Z,36.67
2018-12-15T20:14:43.867Z,35.57
2018-12-15T20:17:16.264Z,30.60
2018-12-15T20:19:48.411Z,25.67
2018-12-15T20:22:28.062Z,25.30
2018-12-15T20:25:01.474Z,28.07
2018-12-15T20:27:33.753Z,24.43
2018-12-15T20:30:06.542Z,25.20
2018-12-15T20:32:42.940Z,25.10
2018-12-15T20:35:15.005Z,25.97
2018-12-15T20:37:47.261Z,25.03
2018-12-15T20:40:20.340Z,26.70
2018-12-15T20:42:52.903Z,25.17
2018-12-15T20:45:25.521Z,28.60
2018-12-15T20:47:57.367Z,28.93
2018-12-15T20:50:38.174Z,25.90
2018-12-15T20:53:19.614Z,23.37
2018-12-15T20:55:53.697Z,20.67
2018-12-15T20:58:25.495Z,21.93
2018-12-15T21:00:58.016Z,28.20
2018-12-15T21:03:30.681Z,27.17
2018-12-15T21:06:03.043Z,39.77
2018-12-15T21:08:35.076Z,35.30
2018-12-15T21:11:07.427Z,40.63
2018-12-15T21:13:39.357Z,32.93
2018-12-15T21:16:11.498Z,25.17
2018-12-15T21:18:52.834Z,24.13
2018-12-15T21:21:25.371Z,24.73
2018-12-15T21:23:58.060Z,24.27
2018-12-15T21:26:30.498Z,22.23
2018-12-15T21:29:02.411Z,21.77
2018-12-15T21:31:44.651Z,21.17
2018-12-15T21:34:33.639Z,25.07
2018-12-15T21:37:07.079Z,19.07
2018-12-15T21:39:39.330Z,19.23
2018-12-15T21:42:11.315Z,19.67
2018-12-15T21:44:44.055Z,20.53
2018-12-15T21:47:16.507Z,26.53
2018-12-15T21:49:50.097Z,23.93
2018-12-15T21:52:22.252Z,20.97
2018-12-15T21:54:54.415Z,20.40
2018-12-15T21:57:26.690Z,19.73
2018-12-15T21:59:58.940Z,20.60
2018-12-15T22:02:30.799Z,19.27
2018-12-15T22:05:03.113Z,19.17
2018-12-15T22:07:36.108Z,19.83
2018-12-15T22:10:09.774Z,19.03
2018-12-15T22:12:42.089Z,18.57
2018-12-15T22:15:14.667Z,18.83
2018-12-15T22:17:46.640Z,19.50
2018-12-15T22:20:20.328Z,20.23
2018-12-15T22:22:52.428Z,18.50
2018-12-15T22:25:24.418Z,18.87
2018-12-15T22:27:56.161Z,23.83
2018-12-15T22:30:28.971Z,19.73
2018-12-15T22:33:01.229Z,18.27
2018-12-15T22:35:33.784Z,19.57
2018-12-15T22:38:06.611Z,20.67
2018-12-15T22:40:39.538Z,24.33
2018-12-15T22:43:11.770Z,20.60
2018-12-15T22:45:44.353Z,23.43
2018-12-15T22:48:16.314Z,25.00
2018-12-15T22:50:48.872Z,26.80
2018-12-15T22:53:21.182Z,20.63
2018-12-15T22:55:53.096Z,19.77
2018-12-15T22:58:24.873Z,23.20
2018-12-15T23:01:02.582Z,28.90
2018-12-15T23:03:34.706Z,30.03
2018-12-15T23:06:07.641Z,23.17
2018-12-15T23:08:39.750Z,19.23
2018-12-15T23:11:11.944Z,20.40
2018-12-15T23:13:43.830Z,18.77
2018-12-15T23:16:16.072Z,18.90
2018-12-15T23:18:48.458Z,16.90
2018-12-15T23:21:20.572Z,16.90
2018-12-15T23:23:52.435Z,19.13
2018-12-15T23:26:24.459Z,18.90
2018-12-15T23:28:56.645Z,17.90
2018-12-15T23:31:28.674Z,18.97
2018-12-15T23:34:00.838Z,17.53
2018-12-15T23:36:32.786Z,18.63
2018-12-15T23:39:08.694Z,19.50
2018-12-15T23:41:40.706Z,17.93
2018-12-15T23:44:12.512Z,19.60
2018-12-15T23:46:44.923Z,21.47
2018-12-15T23:49:16.763Z,19.93
2018-12-15T23:51:48.455Z,19.23
2018-12-15T23:54:20.278Z,17.43
2018-12-15T23:56:52.478Z,17.03
2018-12-15T23:59:24.364Z,19.77
